This is the latest recevied weather packets stored in our database for station/object XE1E-15. If no packets are shown the sender has not sent any weather packets the latest 1 day(s).
| Time | Temp. | Humidity | Pressure | Rain* | Wind** | Luminosity | Snow |
|---|---|---|---|---|---|---|---|
| 1778098642 | 34.44° C | 26% | 1021.4 hPa | - | - | - | - |
| 1778095728 | 32.78° C | 25% | 1022.3 hPa | - | - | - | - |
| 1778091886 | 33.33° C | 26% | 1023.2 hPa | - | - | - | - |
| 1778090926 | 34.44° C | 26% | 1023.5 hPa | - | - | - | - |
| 1778089966 | 32.78° C | 27% | 1023.6 hPa | - | - | - | - |
| 1778089006 | 35° C | 26% | 1023.8 hPa | - | - | - | - |
| 1778082285 | 31.11° C | 32% | 1024.4 hPa | - | - | - | - |
| 1778081325 | 29.44° C | 33% | 1024.5 hPa | - | - | - | - |
| 1778080365 | 28.89° C | 37% | 1024.5 hPa | - | - | - | - |
| 1778077008 | 25.56° C | 42% | 1024.3 hPa | - | - | - | - |
| 1778076048 | 25.56° C | 42% | 1024.2 hPa | - | - | - | - |
| 1778075088 | 24.44° C | 46% | 1024.3 hPa | - | - | - | - |
| 1778074128 | 25° C | 46% | 1024.2 hPa | - | - | - | - |
| 1778068367 | 23.89° C | 47% | 1023.9 hPa | - | - | - | - |
| 1778067407 | 23.89° C | 46% | 1023.8 hPa | - | - | - | - |
| 1778066447 | 23.33° C | 47% | 1023.8 hPa | - | - | - | - |
| 1778065487 | 23.89° C | 47% | 1023.7 hPa | - | - | - | - |
| 1778064525 | 24.44° C | 47% | 1023.6 hPa | - | - | - | - |
| 1778063895 | 23.89° C | 46% | 1023.6 hPa | - | - | - | - |
| 1778063565 | 23.89° C | 46% | 1023.6 hPa | - | - | - | - |
| 1778062605 | 23.89° C | 45% | 1023.6 hPa | - | - | - | - |
| 1778061645 | 24.44° C | 45% | 1023.6 hPa | - | - | - | - |
| 1778058764 | 24.44° C | 45% | 1023.7 hPa | - | - | - | - |
| 1778056370 | 24.44° C | 45% | 1023.9 hPa | - | - | - | - |
| 1778054446 | 25° C | 45% | 1024.1 hPa | - | - | - | - |
* Rain since midnight (hover to see other rain measurements)
** Current wind speed in m/s (hover to see current wind gust speed)